Time;durP1;ratioP1;P1;durP2;ratioP2;P2;SDS_P1;SDS_P2;PMS_P1;PMS_P2;Temp;Humidity;BMP_temperature;BMP_pressure;BME280_temperature;BME280_humidity;BME280_pressure;Samples;Min_cycle;Max_cycle;Signal;HPM_P1;HPM_P2
2022/09/17 00:00:11;;;;;;;3.10;1.33;;;11.70;99.90;;;;;;20863717;28;20122;-38
2022/09/17 00:10:12;;;;;;;0.93;0.40;;;11.60;99.90;;;;;;20849953;28;20140;-38
2022/09/17 00:20:13;;;;;;;2.72;0.40;;;11.50;99.90;;;;;;20862772;28;20091;-38
2022/09/17 00:30:14;;;;;;;1.65;0.70;;;11.40;99.90;;;;;;20842797;28;20087;-38
2022/09/17 00:40:16;;;;;;;2.45;0.60;;;11.40;99.90;;;;;;20836423;28;21196;-38
2022/09/17 00:50:26;;;;;;;3.72;1.08;;;11.40;99.90;;;;;;20819452;28;20126;-38
2022/09/17 01:00:29;;;;;;;2.70;0.75;;;11.30;99.90;;;;;;20836682;28;20072;-38
2022/09/17 01:11:12;;;;;;;3.13;0.50;;;11.10;99.90;;;;;;20818723;28;20135;-37
2022/09/17 01:21:37;;;;;;;2.78;0.68;;;11.00;99.90;;;;;;20829409;28;20595;-38
2022/09/17 01:31:58;;;;;;;3.78;1.23;;;11.00;99.90;;;;;;20845421;28;22461;-38
2022/09/17 01:42:13;;;;;;;1.63;0.40;;;11.00;99.90;;;;;;20831908;28;22648;-38
2022/09/17 01:52:15;;;;;;;3.95;0.70;;;11.10;99.90;;;;;;20844769;28;20060;-39
2022/09/17 02:02:29;;;;;;;15.18;0.75;;;11.30;99.90;;;;;;20856372;28;20082;-39
2022/09/17 02:12:37;;;;;;;1.08;0.30;;;11.30;99.90;;;;;;20838759;28;20146;-39
2022/09/17 02:22:45;;;;;;;1.70;0.80;;;11.30;99.90;;;;;;20829188;28;20183;-38
2022/09/17 02:32:46;;;;;;;2.63;0.50;;;11.10;99.90;;;;;;20844416;28;20896;-38
2022/09/17 02:43:10;;;;;;;1.25;0.45;;;11.10;99.90;;;;;;20847273;28;20115;-38
2022/09/17 02:53:22;;;;;;;4.55;1.38;;;10.90;99.90;;;;;;20844412;28;20176;-38
2022/09/17 03:03:30;;;;;;;1.73;0.50;;;10.70;99.90;;;;;;20853037;28;20075;-38
2022/09/17 03:13:31;;;;;;;2.17;0.45;;;10.70;99.90;;;;;;20844346;28;20067;-39
2022/09/17 03:23:32;;;;;;;1.13;0.45;;;10.50;99.90;;;;;;20833366;28;20603;-39
2022/09/17 03:33:33;;;;;;;3.80;1.48;;;10.40;99.90;;;;;;20848624;28;20065;-39
2022/09/17 03:43:34;;;;;;;1.38;0.47;;;10.20;99.90;;;;;;20856738;28;20290;-39
2022/09/17 03:53:35;;;;;;;5.45;1.20;;;10.10;99.90;;;;;;20839368;28;20114;-38
2022/09/17 04:03:36;;;;;;;1.25;0.40;;;10.20;99.90;;;;;;20842068;28;20076;-38
2022/09/17 04:13:37;;;;;;;0.57;0.20;;;10.30;99.90;;;;;;20838827;28;20238;-38
2022/09/17 04:23:38;;;;;;;0.57;0.20;;;10.20;99.90;;;;;;20839936;28;20048;-38
2022/09/17 04:33:39;;;;;;;1.48;0.80;;;10.10;99.90;;;;;;20839534;28;20049;-39
2022/09/17 04:43:55;;;;;;;1.58;0.17;;;9.90;99.90;;;;;;20814607;27;20626;-39
2022/09/17 04:53:56;;;;;;;2.25;0.32;;;9.70;99.90;;;;;;20780410;28;20184;-39
2022/09/17 05:03:57;;;;;;;2.60;0.50;;;9.80;99.90;;;;;;20788116;28;20056;-39
2022/09/17 05:13:58;;;;;;;3.78;1.55;;;9.80;99.90;;;;;;20778781;28;20044;-39
2022/09/17 05:24:00;;;;;;;0.88;0.22;;;9.90;99.90;;;;;;20771194;28;20029;-39
2022/09/17 05:34:01;;;;;;;3.17;0.57;;;10.30;99.90;;;;;;20784256;28;20500;-39
2022/09/17 05:44:02;;;;;;;2.13;0.35;;;10.20;99.90;;;;;;20779983;28;20487;-40
2022/09/17 05:54:03;;;;;;;0.65;0.22;;;10.10;99.90;;;;;;20747829;28;20072;-40
2022/09/17 06:04:04;;;;;;;2.28;0.70;;;10.00;99.90;;;;;;20741524;28;20061;-40
2022/09/17 06:14:05;;;;;;;1.05;0.40;;;9.90;99.90;;;;;;20722205;28;20030;-40
2022/09/17 06:24:09;;;;;;;6.43;0.85;;;9.90;99.90;;;;;;20710599;28;20128;-39
2022/09/17 06:34:11;;;;;;;0.60;0.40;;;9.90;99.90;;;;;;20722108;28;20053;-39
2022/09/17 06:44:12;;;;;;;1.27;0.57;;;9.90;99.90;;;;;;20721019;28;20124;-39
2022/09/17 06:54:12;;;;;;;1.90;0.77;;;10.00;99.90;;;;;;20710384;28;20105;-39
2022/09/17 07:04:16;;;;;;;2.13;0.40;;;10.20;99.90;;;;;;20751148;28;20080;-39
2022/09/17 07:14:18;;;;;;;1.15;0.40;;;10.50;99.90;;;;;;20789973;28;20588;-39
2022/09/17 07:24:18;;;;;;;1.73;0.32;;;10.80;99.90;;;;;;20798597;28;20034;-39
2022/09/17 07:34:20;;;;;;;4.70;1.23;;;11.10;99.90;;;;;;20779962;28;20551;-39
2022/09/17 07:44:21;;;;;;;1.23;0.20;;;11.40;99.90;;;;;;20769778;28;20275;-39
2022/09/17 07:54:22;;;;;;;1.17;0.55;;;11.60;99.90;;;;;;20755328;28;20030;-39
2022/09/17 08:04:23;;;;;;;1.95;0.82;;;12.10;99.90;;;;;;20803668;28;20057;-39
2022/09/17 08:14:24;;;;;;;3.40;0.28;;;12.00;99.90;;;;;;20789253;28;20201;-39
2022/09/17 08:24:26;;;;;;;1.00;0.20;;;12.00;99.90;;;;;;20796478;28;20111;-39
2022/09/17 08:34:27;;;;;;;1.65;0.40;;;12.20;99.90;;;;;;20779424;28;20649;-39
2022/09/17 08:44:39;;;;;;;0.93;0.30;;;11.60;99.90;;;;;;20782586;28;20021;-39
2022/09/17 08:55:10;;;;;;;0.65;0.17;;;10.90;99.90;;;;;;20768785;28;20124;-40
2022/09/17 09:05:17;;;;;;;1.40;0.20;;;11.40;99.90;;;;;;20786364;28;21866;-40
2022/09/17 09:15:47;;;;;;;1.13;0.60;;;11.50;99.90;;;;;;20751684;28;20041;-40
2022/09/17 09:25:56;;;;;;;1.45;0.70;;;11.50;99.90;;;;;;20813276;28;20590;-40
2022/09/17 09:35:58;;;;;;;0.93;0.30;;;11.60;99.90;;;;;;20841951;28;20559;-40
2022/09/17 09:46:37;;;;;;;6.80;0.30;;;12.00;99.90;;;;;;20839283;28;20045;-40
2022/09/17 09:56:52;;;;;;;;;;;12.50;99.90;;;;;;20834198;28;20179;-39
2022/09/17 10:07:05;;;;;;;0.75;0.22;;;13.10;99.90;;;;;;20835387;28;20941;-39
2022/09/17 10:17:25;;;;;;;0.10;0.10;;;13.00;99.90;;;;;;20834677;28;20721;-39
2022/09/17 10:27:27;;;;;;;0.60;0.13;;;12.40;99.90;;;;;;20814351;28;20500;-39
2022/09/17 10:37:50;;;;;;;0.52;0.20;;;12.30;99.90;;;;;;20814730;28;20050;-39
2022/09/17 10:47:51;;;;;;;3.60;0.85;;;12.80;99.90;;;;;;20812453;28;20886;-37
2022/09/17 10:58:06;;;;;;;1.35;0.20;;;13.50;99.90;;;;;;20807884;28;20049;-37
2022/09/17 11:08:37;;;;;;;1.55;0.30;;;14.20;99.90;;;;;;20794987;28;20158;-37
2022/09/17 11:18:55;;;;;;;4.07;0.35;;;14.30;99.90;;;;;;20781275;28;20128;-37
2022/09/17 11:29:04;;;;;;;1.10;0.43;;;15.20;99.90;;;;;;20772789;28;20131;-37
2022/09/17 11:39:34;;;;;;;0.95;0.20;;;15.40;99.90;;;;;;20779990;28;20061;-37
2022/09/17 11:49:51;;;;;;;2.85;0.95;;;16.10;99.90;;;;;;20776165;28;20568;-37
2022/09/17 12:00:04;;;;;;;2.45;0.35;;;16.60;99.90;;;;;;20791496;28;22816;-37
2022/09/17 12:10:23;;;;;;;1.80;0.57;;;16.30;99.90;;;;;;20764678;28;20143;-38
2022/09/17 12:20:29;;;;;;;0.80;0.30;;;16.50;99.90;;;;;;20796074;28;20144;-37
2022/09/17 12:30:45;;;;;;;5.07;0.40;;;17.30;99.90;;;;;;20796226;28;20127;-37
2022/09/17 12:41:01;;;;;;;1.02;0.30;;;16.50;99.90;;;;;;20796161;28;20714;-37
2022/09/17 12:51:44;;;;;;;3.30;0.73;;;15.40;99.90;;;;;;20794534;28;20197;-37
2022/09/17 13:01:53;;;;;;;0.35;0.20;;;16.70;99.90;;;;;;20798866;28;20669;-37
2022/09/17 13:11:54;;;;;;;1.08;0.45;;;17.40;99.90;;;;;;20807039;28;20175;-37
2022/09/17 13:22:16;;;;;;;0.70;0.40;;;17.00;99.90;;;;;;20799948;28;20029;-37
2022/09/17 13:32:36;;;;;;;0.70;0.20;;;18.50;99.90;;;;;;20801024;28;20038;-37
2022/09/17 13:42:47;;;;;;;1.90;0.43;;;19.20;97.80;;;;;;20810500;28;20132;-37
2022/09/17 13:52:50;;;;;;;2.75;0.40;;;19.70;96.70;;;;;;20778569;28;20557;-38
2022/09/17 14:02:51;;;;;;;4.82;0.30;;;18.80;98.20;;;;;;20798510;28;20792;-38
2022/09/17 14:12:56;;;;;;;1.17;0.38;;;18.50;99.90;;;;;;20809092;28;20120;-38
2022/09/17 14:23:02;;;;;;;7.13;1.25;;;18.80;99.30;;;;;;20826999;28;20127;-38
2022/09/17 14:33:13;;;;;;;1.42;0.45;;;18.80;99.90;;;;;;20819636;28;20126;-38
2022/09/17 14:43:44;;;;;;;7.63;1.10;;;18.20;99.90;;;;;;20822993;28;20524;-37
2022/09/17 14:53:47;;;;;;;3.65;0.40;;;17.70;99.90;;;;;;20818529;28;21660;-37
2022/09/17 15:03:49;;;;;;;1.67;0.73;;;17.40;99.40;;;;;;20813453;28;20084;-38
2022/09/17 15:13:51;;;;;;;3.22;1.75;;;17.20;99.90;;;;;;20807444;28;20611;-38
2022/09/17 15:23:58;;;;;;;30.77;0.70;;;16.70;99.90;;;;;;20798415;28;20123;-38
2022/09/17 15:33:59;;;;;;;2.08;0.43;;;16.50;99.90;;;;;;20796561;28;20144;-37
2022/09/17 15:44:25;;;;;;;0.93;0.40;;;16.60;99.90;;;;;;20810225;28;20047;-37
2022/09/17 15:54:31;;;;;;;1.83;0.25;;;16.50;99.90;;;;;;20816168;28;20037;-38
2022/09/17 16:04:33;;;;;;;1.23;0.25;;;15.90;99.90;;;;;;20837794;28;20045;-37
2022/09/17 16:14:34;;;;;;;2.83;0.82;;;15.60;99.90;;;;;;20834714;28;20041;-37
2022/09/17 16:24:35;;;;;;;1.20;0.28;;;15.40;99.90;;;;;;20835750;28;20048;-37
2022/09/17 16:34:36;;;;;;;1.13;0.40;;;14.80;99.90;;;;;;20831053;28;20056;-37
2022/09/17 16:44:37;;;;;;;2.72;0.70;;;13.50;99.90;;;;;;20870610;28;20041;-37
2022/09/17 16:54:38;;;;;;;0.20;0.20;;;12.50;99.90;;;;;;20873868;28;20496;-39
2022/09/17 17:04:39;;;;;;;0.93;0.20;;;12.00;99.90;;;;;;20860102;28;20492;-40
2022/09/17 17:14:40;;;;;;;1.60;0.90;;;11.60;99.90;;;;;;20894760;28;21084;-41
2022/09/17 17:24:41;;;;;;;0.57;0.20;;;11.50;99.90;;;;;;20899730;28;20095;-40
2022/09/17 17:34:42;;;;;;;0.65;0.40;;;11.60;99.90;;;;;;20900342;28;20052;-40
2022/09/17 17:44:43;;;;;;;0.30;0.10;;;11.60;99.90;;;;;;20865932;28;20406;-40
2022/09/17 17:54:44;;;;;;;1.10;0.20;;;11.50;99.90;;;;;;20907289;28;20448;-40
2022/09/17 18:04:45;;;;;;;0.40;0.13;;;11.60;99.90;;;;;;20900341;28;20029;-40
2022/09/17 18:14:46;;;;;;;1.40;0.35;;;11.60;99.90;;;;;;20865629;28;20524;-41
2022/09/17 18:24:48;;;;;;;1.10;0.30;;;11.60;99.90;;;;;;20873430;28;20025;-40
2022/09/17 18:34:49;;;;;;;3.70;0.88;;;11.50;99.90;;;;;;20891043;28;20508;-40
2022/09/17 18:44:50;;;;;;;1.15;0.60;;;11.50;99.90;;;;;;20894992;28;20792;-40
2022/09/17 18:54:51;;;;;;;4.07;1.63;;;11.40;99.90;;;;;;20898603;28;20468;-38
2022/09/17 19:04:52;;;;;;;1.00;0.30;;;11.40;99.90;;;;;;20899844;28;20047;-38
2022/09/17 19:14:53;;;;;;;2.72;0.40;;;11.50;99.90;;;;;;20899581;28;20086;-38
2022/09/17 19:24:54;;;;;;;1.60;0.45;;;11.40;99.90;;;;;;20902343;28;20098;-37
2022/09/17 19:34:56;;;;;;;0.75;0.22;;;11.40;99.90;;;;;;20902310;28;20060;-37
2022/09/17 19:44:57;;;;;;;0.98;0.47;;;11.40;99.90;;;;;;20904288;28;20785;-37
2022/09/17 19:54:58;;;;;;;2.88;1.55;;;11.40;99.90;;;;;;20903104;28;20040;-37
2022/09/17 20:04:59;;;;;;;2.30;0.63;;;11.50;99.90;;;;;;20890809;28;20127;-40
2022/09/17 20:15:00;;;;;;;1.45;0.57;;;11.50;99.90;;;;;;20865560;28;20052;-40
2022/09/17 20:25:01;;;;;;;1.35;0.90;;;11.50;99.90;;;;;;20881378;28;20048;-40
2022/09/17 20:35:02;;;;;;;1.95;0.60;;;11.50;99.90;;;;;;20873689;28;20073;-38
2022/09/17 20:45:04;;;;;;;1.92;0.45;;;11.50;99.90;;;;;;20867910;28;20071;-38
2022/09/17 20:55:05;;;;;;;1.35;0.40;;;11.40;99.90;;;;;;20949120;28;20512;-37
2022/09/17 21:05:06;;;;;;;3.97;1.95;;;11.50;99.90;;;;;;20959319;28;20720;-37
2022/09/17 21:15:08;;;;;;;2.13;0.70;;;11.40;99.90;;;;;;20969327;28;20041;-40
2022/09/17 21:25:09;;;;;;;1.85;0.60;;;11.50;99.90;;;;;;20972099;28;20204;-41
2022/09/17 21:35:10;;;;;;;2.60;0.70;;;11.50;99.90;;;;;;20952886;28;20066;-41
2022/09/17 21:45:11;;;;;;;2.80;0.38;;;11.50;99.90;;;;;;20969920;28;20170;-41
2022/09/17 21:55:12;;;;;;;2.38;0.30;;;11.40;99.90;;;;;;20945433;28;20131;-41
2022/09/17 22:05:14;;;;;;;0.93;0.35;;;11.40;99.90;;;;;;20979800;28;20122;-41
2022/09/17 22:15:15;;;;;;;1.02;0.30;;;11.40;99.90;;;;;;20977980;28;20134;-41
2022/09/17 22:25:16;;;;;;;2.97;1.00;;;11.50;99.90;;;;;;20977135;28;20093;-38
2022/09/17 22:35:17;;;;;;;3.92;1.95;;;11.50;99.90;;;;;;20969017;28;20036;-40
2022/09/17 22:45:18;;;;;;;2.38;0.55;;;11.40;99.90;;;;;;20977331;28;20041;-38
2022/09/17 22:55:19;;;;;;;1.63;0.75;;;11.40;99.90;;;;;;20962111;28;20142;-38
2022/09/17 23:05:20;;;;;;;3.67;0.70;;;11.50;99.90;;;;;;20991878;28;20383;-39
2022/09/17 23:15:26;;;;;;;6.32;0.73;;;11.50;99.90;;;;;;20976614;28;20040;-39
2022/09/17 23:25:27;;;;;;;1.70;0.40;;;11.30;99.90;;;;;;20975964;28;20048;-39
2022/09/17 23:35:28;;;;;;;1.15;0.30;;;11.30;99.90;;;;;;20965652;28;20357;-38
2022/09/17 23:45:29;;;;;;;2.58;0.43;;;11.30;99.90;;;;;;20960880;28;20035;-38
2022/09/17 23:55:30;;;;;;;1.92;0.25;;;11.30;99.90;;;;;;20950267;28;20149;-38
